Time;durP1;ratioP1;P1;durP2;ratioP2;P2;SDS_P1;SDS_P2;PMS_P1;PMS_P2;Temp;Humidity;BMP_temperature;BMP_pressure;BME280_temperature;BME280_humidity;BME280_pressure;Samples;Min_cycle;Max_cycle;Signal;HPM_P1;HPM_P2
2020/12/31 00:00:23;;;;;;;5.23;3.30;;;;;;;;;;5039982;28;20593;-86
2020/12/31 00:03:27;;;;;;;3.80;3.10;;;;;;;;;;5040092;28;20589;-87
2020/12/31 00:06:33;;;;;;;4.53;3.10;;;;;;;;;;5040454;28;20538;-87
2020/12/31 00:09:37;;;;;;;5.33;2.90;;;;;;;;;;5046409;28;20575;-86
2020/12/31 00:12:41;;;;;;;4.40;3.00;;;;;;;;;;5060473;28;20649;-86
2020/12/31 00:15:45;;;;;;;4.07;3.00;;;;;;;;;;5051572;28;20538;-87
2020/12/31 00:18:49;;;;;;;3.90;3.00;;;;;;;;;;5074270;28;20554;-86
2020/12/31 00:21:53;;;;;;;3.60;2.93;;;;;;;;;;5051120;28;20628;-86
2020/12/31 00:24:57;;;;;;;4.83;3.50;;;;;;;;;;5032843;28;21196;-86
2020/12/31 00:28:01;;;;;;;4.90;3.57;;;;;;;;;;5048708;28;20590;-86
2020/12/31 00:31:09;;;;;;;4.40;3.33;;;;;;;;;;5031389;28;20622;-86
2020/12/31 00:34:13;;;;;;;3.83;3.27;;;;;;;;;;5031528;28;20535;-86
2020/12/31 00:37:17;;;;;;;5.10;3.40;;;;;;;;;;5038269;28;20589;-86
2020/12/31 00:40:21;;;;;;;4.60;3.73;;;;;;;;;;5051373;28;20542;-86
2020/12/31 00:43:25;;;;;;;4.50;3.50;;;;;;;;;;5042631;28;20566;-86
2020/12/31 00:46:30;;;;;;;4.93;3.73;;;;;;;;;;5042435;28;20531;-86
2020/12/31 00:49:34;;;;;;;5.10;3.80;;;;;;;;;;5031146;28;20547;-86
2020/12/31 00:52:38;;;;;;;5.40;4.00;;;;;;;;;;5030766;28;20634;-86
2020/12/31 00:55:43;;;;;;;3.90;3.20;;;;;;;;;;5036140;28;20590;-86
2020/12/31 00:58:49;;;;;;;5.00;3.50;;;;;;;;;;5050285;28;21162;-87
2020/12/31 01:01:53;;;;;;;4.90;3.30;;;;;;;;;;5050463;28;20952;-86
2020/12/31 01:04:58;;;;;;;5.23;3.83;;;;;;;;;;5051134;28;20631;-86
2020/12/31 01:08:03;;;;;;;4.50;3.63;;;;;;;;;;5053465;28;20894;-86
2020/12/31 01:11:07;;;;;;;8.23;3.73;;;;;;;;;;5030714;28;20617;-86
2020/12/31 01:14:11;;;;;;;4.30;3.50;;;;;;;;;;5030977;28;20539;-87
2020/12/31 01:17:15;;;;;;;4.93;3.63;;;;;;;;;;5030552;28;20890;-86
2020/12/31 01:20:19;;;;;;;5.30;3.47;;;;;;;;;;5030445;28;20602;-86
2020/12/31 01:23:24;;;;;;;3.67;3.23;;;;;;;;;;5037813;28;20656;-86
2020/12/31 01:26:33;;;;;;;4.23;3.53;;;;;;;;;;5038783;28;20590;-86
2020/12/31 01:29:37;;;;;;;4.80;3.70;;;;;;;;;;5038804;28;20590;-87
2020/12/31 01:32:42;;;;;;;4.43;3.87;;;;;;;;;;5050151;28;20646;-86
2020/12/31 01:35:46;;;;;;;4.53;3.37;;;;;;;;;;5046061;28;20590;-86
2020/12/31 01:38:51;;;;;;;6.13;3.67;;;;;;;;;;5061127;28;20554;-86
2020/12/31 01:42:02;;;;;;;5.13;3.67;;;;;;;;;;5049883;28;20617;-86
2020/12/31 01:45:06;;;;;;;4.97;3.93;;;;;;;;;;5050173;28;21132;-87
2020/12/31 01:48:10;;;;;;;6.97;3.60;;;;;;;;;;5041515;28;20602;-86
2020/12/31 01:51:15;;;;;;;5.30;3.50;;;;;;;;;;5048436;28;20669;-86
2020/12/31 01:54:20;;;;;;;5.00;3.50;;;;;;;;;;5049086;28;20589;-86
2020/12/31 01:57:24;;;;;;;5.17;3.93;;;;;;;;;;5061469;28;21069;-86
2020/12/31 02:00:28;;;;;;;4.83;3.93;;;;;;;;;;5037442;28;20594;-86
2020/12/31 02:03:33;;;;;;;5.07;4.20;;;;;;;;;;5049443;28;20558;-86
2020/12/31 02:06:38;;;;;;;6.07;4.00;;;;;;;;;;5038606;28;20535;-86
2020/12/31 02:09:43;;;;;;;5.50;3.80;;;;;;;;;;5049534;28;20550;-87
2020/12/31 02:12:48;;;;;;;6.40;3.93;;;;;;;;;;5046902;28;20645;-86
2020/12/31 02:15:52;;;;;;;5.30;4.07;;;;;;;;;;5034952;28;20594;-86
2020/12/31 02:19:00;;;;;;;5.23;4.00;;;;;;;;;;5049343;28;20894;-87
2020/12/31 02:22:04;;;;;;;6.33;4.27;;;;;;;;;;5060869;28;20613;-86
2020/12/31 02:25:09;;;;;;;6.57;4.23;;;;;;;;;;5038531;28;20586;-87
2020/12/31 02:28:13;;;;;;;4.47;3.93;;;;;;;;;;5021216;28;20594;-86
2020/12/31 02:31:17;;;;;;;5.43;4.03;;;;;;;;;;5035589;28;20649;-86
2020/12/31 02:34:24;;;;;;;6.10;3.77;;;;;;;;;;5050440;28;20534;-86
2020/12/31 02:37:28;;;;;;;5.23;4.20;;;;;;;;;;5053523;28;20537;-86
2020/12/31 02:40:32;;;;;;;5.63;4.23;;;;;;;;;;5047267;28;20590;-87
2020/12/31 02:43:37;;;;;;;4.80;4.07;;;;;;;;;;5022461;28;20539;-86
2020/12/31 02:46:42;;;;;;;5.13;3.93;;;;;;;;;;5059489;28;20582;-86
2020/12/31 02:49:46;;;;;;;5.87;3.80;;;;;;;;;;5046248;28;20966;-87
2020/12/31 02:52:50;;;;;;;7.20;4.13;;;;;;;;;;5021616;28;20649;-86
2020/12/31 02:55:54;;;;;;;5.97;4.80;;;;;;;;;;5033872;28;21199;-86
2020/12/31 02:58:58;;;;;;;5.00;3.57;;;;;;;;;;5044453;28;20602;-87
2020/12/31 03:02:02;;;;;;;6.10;4.23;;;;;;;;;;5033305;28;20618;-86
2020/12/31 03:05:07;;;;;;;5.00;3.90;;;;;;;;;;5056404;28;21199;-86
2020/12/31 03:08:11;;;;;;;5.43;4.00;;;;;;;;;;5044237;28;20594;-86
2020/12/31 03:11:20;;;;;;;6.07;3.90;;;;;;;;;;5043905;28;20649;-86
2020/12/31 03:14:24;;;;;;;5.53;4.13;;;;;;;;;;5044245;28;20535;-86
2020/12/31 03:17:29;;;;;;;4.87;3.83;;;;;;;;;;5036464;28;20617;-86
2020/12/31 03:20:33;;;;;;;5.27;4.03;;;;;;;;;;5041897;28;20534;-86
2020/12/31 03:23:38;;;;;;;5.03;4.10;;;;;;;;;;5052953;28;20550;-86
2020/12/31 03:26:42;;;;;;;6.13;3.90;;;;;;;;;;5051986;28;20633;-86
2020/12/31 03:29:46;;;;;;;4.93;3.73;;;;;;;;;;5040901;28;20589;-86
2020/12/31 03:32:50;;;;;;;4.00;3.60;;;;;;;;;;5037067;28;20641;-87
2020/12/31 03:35:55;;;;;;;5.40;4.33;;;;;;;;;;5061142;28;20597;-86
2020/12/31 03:38:59;;;;;;;4.73;4.20;;;;;;;;;;5043488;28;20555;-86
2020/12/31 03:42:03;;;;;;;6.97;4.40;;;;;;;;;;5043795;28;20634;-86
2020/12/31 03:45:08;;;;;;;6.73;4.43;;;;;;;;;;5062864;28;20618;-86
2020/12/31 03:48:12;;;;;;;5.10;3.63;;;;;;;;;;5032291;28;20539;-86
2020/12/31 03:51:16;;;;;;;4.63;3.77;;;;;;;;;;5036465;28;20656;-86
2020/12/31 03:54:20;;;;;;;5.93;4.07;;;;;;;;;;5063377;28;21092;-86
2020/12/31 03:57:24;;;;;;;4.47;3.77;;;;;;;;;;5060590;28;20586;-86
2020/12/31 04:00:28;;;;;;;5.47;3.83;;;;;;;;;;5043427;28;20547;-86
2020/12/31 04:03:32;;;;;;;5.03;3.70;;;;;;;;;;5043326;28;20543;-86
2020/12/31 04:06:37;;;;;;;6.43;4.17;;;;;;;;;;5038671;28;20626;-86
2020/12/31 04:09:41;;;;;;;5.10;4.13;;;;;;;;;;5061178;28;20597;-86
2020/12/31 04:12:45;;;;;;;5.67;3.87;;;;;;;;;;5051524;28;20621;-86
2020/12/31 04:15:49;;;;;;;5.40;3.77;;;;;;;;;;5050791;28;20589;-86
2020/12/31 04:18:53;;;;;;;6.13;4.10;;;;;;;;;;5020170;28;20590;-86
2020/12/31 04:21:58;;;;;;;6.27;4.47;;;;;;;;;;5031534;28;20646;-86
2020/12/31 04:25:02;;;;;;;4.87;3.77;;;;;;;;;;5051355;28;20542;-86
2020/12/31 04:28:06;;;;;;;7.17;4.37;;;;;;;;;;5055341;28;20586;-87
2020/12/31 04:31:10;;;;;;;5.37;4.37;;;;;;;;;;5031132;28;21002;-86
2020/12/31 04:34:14;;;;;;;7.57;4.27;;;;;;;;;;5049099;28;20617;-86
2020/12/31 04:37:19;;;;;;;6.83;4.27;;;;;;;;;;5049722;28;20586;-86
2020/12/31 04:40:23;;;;;;;5.60;4.20;;;;;;;;;;5031307;28;20539;-86
2020/12/31 04:43:27;;;;;;;6.07;4.47;;;;;;;;;;5031695;28;20532;-86
2020/12/31 04:46:33;;;;;;;6.33;4.53;;;;;;;;;;5031463;28;21204;-86
2020/12/31 04:49:44;;;;;;;4.83;3.83;;;;;;;;;;5031101;28;20547;-86
2020/12/31 04:52:48;;;;;;;5.87;4.37;;;;;;;;;;5049233;23;21014;-87
2020/12/31 04:55:52;;;;;;;7.30;4.30;;;;;;;;;;5021859;28;20603;-87
2020/12/31 04:58:57;;;;;;;6.67;4.10;;;;;;;;;;5029971;28;20607;-84
2020/12/31 05:02:01;;;;;;;6.53;4.10;;;;;;;;;;5041119;28;21200;-84
2020/12/31 05:05:05;;;;;;;5.77;4.43;;;;;;;;;;5032156;28;20544;-86
2020/12/31 05:08:09;;;;;;;6.13;4.30;;;;;;;;;;5012044;28;20551;-86
2020/12/31 05:11:14;;;;;;;4.53;4.07;;;;;;;;;;5010831;28;20615;-85
2020/12/31 05:14:35;;;;;;;5.47;4.10;;;;;;;;;;5011579;28;20603;-86
2020/12/31 05:17:39;;;;;;;6.70;4.30;;;;;;;;;;5004501;28;20925;-86
2020/12/31 05:20:46;;;;;;;7.47;4.40;;;;;;;;;;5018216;28;20591;-83
2020/12/31 05:23:50;;;;;;;5.67;4.20;;;;;;;;;;5034269;28;20556;-87
2020/12/31 05:26:54;;;;;;;6.57;4.47;;;;;;;;;;5000020;28;20624;-84
2020/12/31 05:30:06;;;;;;;6.77;4.53;;;;;;;;;;5002348;28;20620;-84
2020/12/31 05:33:11;;;;;;;6.07;4.37;;;;;;;;;;5019148;28;20631;-88
2020/12/31 05:36:26;;;;;;;7.37;5.40;;;;;;;;;;5018887;28;20587;-87
2020/12/31 05:39:30;;;;;;;8.20;5.20;;;;;;;;;;5022701;28;20556;-83
2020/12/31 05:42:39;;;;;;;6.63;5.20;;;;;;;;;;5033950;28;20619;-83
2020/12/31 05:45:43;;;;;;;6.60;4.87;;;;;;;;;;5038820;28;20637;-87
2020/12/31 05:48:58;;;;;;;10.23;5.47;;;;;;;;;;5013774;28;20596;-86
2020/12/31 05:52:02;;;;;;;8.93;5.37;;;;;;;;;;5022111;28;20670;-84
2020/12/31 05:55:08;;;;;;;7.23;5.27;;;;;;;;;;5022411;28;20895;-85
2020/12/31 05:58:17;;;;;;;6.70;5.13;;;;;;;;;;5022956;28;20532;-86
2020/12/31 06:01:29;;;;;;;7.70;5.37;;;;;;;;;;5010787;28;20560;-86
2020/12/31 06:04:46;;;;;;;6.73;5.23;;;;;;;;;;5021972;28;20580;-87
2020/12/31 06:07:51;;;;;;;7.77;5.53;;;;;;;;;;5002353;28;20537;-86
2020/12/31 06:11:01;;;;;;;7.37;5.50;;;;;;;;;;5017569;28;20587;-86
2020/12/31 06:14:05;;;;;;;8.17;5.77;;;;;;;;;;5028576;28;20543;-86
2020/12/31 06:17:19;;;;;;;7.97;6.10;;;;;;;;;;5016980;28;20587;-86
2020/12/31 06:20:25;;;;;;;8.33;5.97;;;;;;;;;;5039974;28;20904;-86
2020/12/31 06:23:37;;;;;;;8.40;5.50;;;;;;;;;;5027857;28;21224;-86
2020/12/31 06:26:41;;;;;;;7.47;5.60;;;;;;;;;;5039068;28;20659;-86
2020/12/31 06:29:50;;;;;;;7.47;5.27;;;;;;;;;;5028154;28;20591;-86
2020/12/31 06:32:55;;;;;;;9.10;5.17;;;;;;;;;;5009100;28;20632;-86
2020/12/31 06:36:01;;;;;;;6.93;5.17;;;;;;;;;;5015878;28;20580;-86
2020/12/31 06:39:06;;;;;;;6.43;4.93;;;;;;;;;;5020039;28;20599;-86
2020/12/31 06:42:10;;;;;;;8.83;6.20;;;;;;;;;;5017549;28;20619;-86
2020/12/31 06:45:38;;;;;;;8.90;5.83;;;;;;;;;;5028887;28;20540;-85
2020/12/31 06:48:42;;;;;;;6.70;5.40;;;;;;;;;;5028662;28;20555;-86
2020/12/31 06:51:46;;;;;;;10.03;6.70;;;;;;;;;;5017440;28;20658;-86
2020/12/31 06:54:51;;;;;;;8.77;5.37;;;;;;;;;;5017082;28;20567;-86
2020/12/31 06:57:55;;;;;;;9.87;5.47;;;;;;;;;;5031236;28;20880;-86
2020/12/31 07:01:01;;;;;;;15.00;10.70;;;;;;;;;;5020501;28;20544;-85
2020/12/31 07:04:05;;;;;;;12.50;9.40;;;;;;;;;;5010146;28;20622;-86
2020/12/31 07:07:18;;;;;;;10.80;6.90;;;;;;;;;;5039075;28;20637;-87
2020/12/31 07:10:22;;;;;;;9.17;6.30;;;;;;;;;;5020455;28;20578;-88
2020/12/31 07:13:30;;;;;;;11.57;6.90;;;;;;;;;;5044775;28;20639;-85
2020/12/31 07:16:45;;;;;;;13.23;8.63;;;;;;;;;;5039492;28;21187;-86
2020/12/31 07:19:54;;;;;;;10.87;7.63;;;;;;;;;;5028046;28;20990;-87
2020/12/31 07:23:06;;;;;;;10.17;6.90;;;;;;;;;;5037151;28;20624;-86
2020/12/31 07:26:10;;;;;;;9.43;6.63;;;;;;;;;;5021734;28;20647;-86
2020/12/31 07:29:23;;;;;;;7.80;5.87;;;;;;;;;;5026154;28;20623;-87
2020/12/31 07:32:49;;;;;;;8.13;5.90;;;;;;;;;;5018766;28;20647;-87
2020/12/31 07:35:53;;;;;;;8.00;5.50;;;;;;;;;;5024498;28;21161;-85
2020/12/31 07:38:57;;;;;;;7.17;5.70;;;;;;;;;;5034947;28;20591;-86
2020/12/31 07:42:15;;;;;;;7.47;6.00;;;;;;;;;;5035355;28;20634;-84
2020/12/31 07:45:19;;;;;;;8.23;6.13;;;;;;;;;;5016753;28;20579;-86
2020/12/31 07:48:25;;;;;;;7.57;5.67;;;;;;;;;;5024237;28;20603;-86
2020/12/31 07:51:29;;;;;;;8.97;6.40;;;;;;;;;;4993667;28;20600;-86
2020/12/31 07:54:33;;;;;;;13.73;9.77;;;;;;;;;;5009792;28;20579;-86
2020/12/31 07:57:38;;;;;;;14.80;10.93;;;;;;;;;;5026986;28;21178;-86
2020/12/31 08:00:43;;;;;;;17.07;11.40;;;;;;;;;;5034979;28;20959;-86
2020/12/31 08:03:47;;;;;;;16.70;10.20;;;;;;;;;;5004618;28;20904;-86
2020/12/31 08:06:51;;;;;;;15.13;10.10;;;;;;;;;;5004177;28;20603;-86
2020/12/31 08:09:55;;;;;;;20.20;11.50;;;;;;;;;;5022293;28;20590;-87
2020/12/31 08:13:05;;;;;;;20.33;12.67;;;;;;;;;;4989833;28;20658;-86
2020/12/31 08:16:14;;;;;;;22.23;12.73;;;;;;;;;;4992558;28;20908;-86
2020/12/31 08:19:18;;;;;;;37.43;17.97;;;;;;;;;;5018089;28;20592;-87
2020/12/31 08:22:30;;;;;;;35.50;18.23;;;;;;;;;;5023211;28;20636;-86
2020/12/31 08:25:41;;;;;;;29.90;17.10;;;;;;;;;;5011073;28;20607;-86
2020/12/31 08:28:45;;;;;;;20.13;12.63;;;;;;;;;;5011448;28;20943;-87
2020/12/31 08:31:53;;;;;;;23.33;12.10;;;;;;;;;;5011790;28;21241;-87
2020/12/31 08:34:57;;;;;;;20.07;11.10;;;;;;;;;;5029411;28;20554;-87
2020/12/31 08:38:19;;;;;;;17.40;10.27;;;;;;;;;;5010771;28;20615;-87
2020/12/31 08:41:23;;;;;;;17.93;11.03;;;;;;;;;;5011877;28;20914;-87
2020/12/31 08:44:27;;;;;;;15.80;8.93;;;;;;;;;;4998276;28;20591;-87
2020/12/31 08:47:31;;;;;;;9.57;5.97;;;;;;;;;;5022467;28;20631;-87
2020/12/31 08:50:36;;;;;;;7.13;5.07;;;;;;;;;;5034675;28;20539;-87
2020/12/31 08:53:54;;;;;;;8.00;5.30;;;;;;;;;;5008240;28;20588;-87
2020/12/31 08:57:14;;;;;;;6.23;4.63;;;;;;;;;;5034066;28;20540;-86
2020/12/31 09:00:35;;;;;;;6.47;4.33;;;;;;;;;;5033960;28;20876;-86
2020/12/31 09:03:38;;;;;;;5.97;4.40;;;;;;;;;;5022135;28;20591;-87
2020/12/31 09:06:45;;;;;;;8.80;4.63;;;;;;;;;;5031688;28;20982;-87
2020/12/31 09:09:49;;;;;;;5.47;4.33;;;;;;;;;;5022525;28;20587;-85
2020/12/31 09:12:55;;;;;;;5.00;4.10;;;;;;;;;;5011481;28;20647;-86
2020/12/31 09:16:06;;;;;;;4.20;3.57;;;;;;;;;;5020988;28;20587;-85
2020/12/31 09:19:11;;;;;;;4.43;3.50;;;;;;;;;;5021894;28;20607;-86
2020/12/31 09:22:15;;;;;;;4.07;3.37;;;;;;;;;;5023288;28;20627;-85
2020/12/31 09:25:20;;;;;;;5.53;2.63;;;;;;;;;;5023031;28;20615;-85
2020/12/31 09:28:25;;;;;;;3.80;2.40;;;;;;;;;;5000195;28;20983;-85
2020/12/31 09:31:35;;;;;;;4.07;2.80;;;;;;;;;;5022352;28;20552;-87
2020/12/31 09:34:39;;;;;;;4.17;2.60;;;;;;;;;;5031687;28;21161;-86
2020/12/31 09:37:57;;;;;;;4.70;2.63;;;;;;;;;;5022768;28;20548;-86
2020/12/31 09:41:01;;;;;;;4.83;2.57;;;;;;;;;;5010497;28;20579;-86
2020/12/31 09:44:06;;;;;;;3.90;2.53;;;;;;;;;;5028873;28;20619;-86
2020/12/31 09:47:10;;;;;;;5.83;2.50;;;;;;;;;;5003238;28;20636;-86
2020/12/31 09:50:14;;;;;;;2.43;2.23;;;;;;;;;;5014105;28;20561;-87
2020/12/31 09:53:18;;;;;;;3.30;2.50;;;;;;;;;;5024616;28;20643;-86
2020/12/31 09:56:28;;;;;;;4.80;3.00;;;;;;;;;;5006313;28;20591;-89
2020/12/31 09:59:32;;;;;;;3.43;2.77;;;;;;;;;;5029295;28;20571;-88
2020/12/31 10:02:37;;;;;;;3.37;2.43;;;;;;;;;;5032664;28;20971;-88
2020/12/31 10:05:41;;;;;;;2.67;2.40;;;;;;;;;;5009347;28;20615;-89
2020/12/31 10:08:47;;;;;;;3.43;2.40;;;;;;;;;;5020743;28;20627;-88
2020/12/31 10:11:54;;;;;;;4.10;2.60;;;;;;;;;;5022457;28;20983;-89
2020/12/31 10:14:58;;;;;;;5.80;2.80;;;;;;;;;;5010060;28;20616;-88
2020/12/31 10:18:02;;;;;;;4.40;2.73;;;;;;;;;;5032646;28;20547;-88
2020/12/31 10:21:07;;;;;;;4.77;3.10;;;;;;;;;;5010276;28;20535;-88
2020/12/31 10:24:13;;;;;;;7.73;3.03;;;;;;;;;;4999385;28;20556;-89
2020/12/31 10:27:18;;;;;;;4.93;2.90;;;;;;;;;;5021632;28;21014;-89
2020/12/31 10:30:22;;;;;;;4.17;2.70;;;;;;;;;;5010376;28;21085;-90
2020/12/31 10:33:26;;;;;;;4.67;2.67;;;;;;;;;;5009686;28;20615;-88
2020/12/31 10:36:30;;;;;;;3.60;2.37;;;;;;;;;;5032972;28;20544;-88
2020/12/31 10:39:35;;;;;;;3.03;2.47;;;;;;;;;;5009814;28;20551;-89
2020/12/31 10:42:40;;;;;;;3.47;2.50;;;;;;;;;;5009053;28;20643;-86
2020/12/31 10:45:45;;;;;;;2.80;2.50;;;;;;;;;;4998266;28;21153;-84
2020/12/31 10:48:49;;;;;;;4.53;2.77;;;;;;;;;;5021443;28;20217;-85
2020/12/31 10:52:18;;;;;;;3.33;2.60;;;;;;;;;;5002685;28;20232;-85
2020/12/31 10:55:23;;;;;;;6.07;3.67;;;;;;;;;;4990529;28;20209;-85
2020/12/31 10:58:27;;;;;;;4.67;2.93;;;;;;;;;;5026925;28;20193;-83
2020/12/31 11:01:31;;;;;;;5.97;3.10;;;;;;;;;;4986535;28;20178;-82
2020/12/31 11:04:36;;;;;;;3.97;3.07;;;;;;;;;;4997288;28;20625;-82
2020/12/31 11:07:40;;;;;;;5.37;3.30;;;;;;;;;;4994964;28;20202;-82
2020/12/31 11:10:48;;;;;;;6.87;3.17;;;;;;;;;;4971674;28;20186;-82
2020/12/31 11:13:53;;;;;;;3.90;3.17;;;;;;;;;;4974100;28;20214;-82
2020/12/31 11:16:58;;;;;;;3.73;3.17;;;;;;;;;;4972781;28;20178;-82
2020/12/31 11:20:03;;;;;;;3.13;2.70;;;;;;;;;;4984377;28;20668;-82
2020/12/31 11:23:08;;;;;;;5.83;2.63;;;;;;;;;;4978767;28;20210;-82
2020/12/31 11:26:17;;;;;;;2.80;2.50;;;;;;;;;;4981108;28;20193;-81
2020/12/31 11:29:21;;;;;;;3.73;2.70;;;;;;;;;;4967869;28;20203;-82
2020/12/31 11:32:26;;;;;;;2.60;2.37;;;;;;;;;;4994039;28;20225;-82
2020/12/31 11:35:30;;;;;;;2.93;2.10;;;;;;;;;;4986966;28;20632;-81
2020/12/31 11:38:35;;;;;;;4.00;2.70;;;;;;;;;;4961164;28;20194;-81
2020/12/31 11:41:39;;;;;;;3.90;2.70;;;;;;;;;;4982527;28;20193;-82
2020/12/31 11:44:43;;;;;;;3.63;2.53;;;;;;;;;;4974411;28;20182;-82
2020/12/31 11:47:47;;;;;;;3.10;2.20;;;;;;;;;;4974079;28;20601;-82
2020/12/31 11:50:52;;;;;;;4.53;2.90;;;;;;;;;;4962891;28;20178;-82
2020/12/31 11:53:57;;;;;;;3.30;2.23;;;;;;;;;;4977230;28;20229;-84
2020/12/31 11:57:04;;;;;;;3.03;2.20;;;;;;;;;;4985282;28;20525;-84
2020/12/31 12:00:09;;;;;;;3.20;2.47;;;;;;;;;;4996696;28;20538;-84
2020/12/31 12:03:13;;;;;;;3.23;2.40;;;;;;;;;;4973335;28;20221;-84
2020/12/31 12:06:18;;;;;;;2.80;2.30;;;;;;;;;;4973584;28;20198;-84
2020/12/31 12:09:22;;;;;;;3.00;2.03;;;;;;;;;;4984462;28;20225;-84
2020/12/31 12:12:26;;;;;;;4.07;2.03;;;;;;;;;;4994794;28;20653;-85
2020/12/31 12:15:30;;;;;;;2.70;2.30;;;;;;;;;;4972299;28;20190;-83
2020/12/31 12:18:35;;;;;;;2.43;2.10;;;;;;;;;;4984522;28;20182;-85
2020/12/31 12:21:39;;;;;;;4.83;2.50;;;;;;;;;;4973346;28;20589;-84
2020/12/31 12:24:43;;;;;;;2.80;2.03;;;;;;;;;;4984514;28;21155;-84
2020/12/31 12:27:47;;;;;;;2.63;2.00;;;;;;;;;;4984827;28;20589;-83
2020/12/31 12:30:51;;;;;;;2.97;2.30;;;;;;;;;;4973466;28;20546;-84
2020/12/31 12:33:56;;;;;;;2.40;2.10;;;;;;;;;;4982945;28;20656;-83
2020/12/31 12:37:00;;;;;;;3.27;1.90;;;;;;;;;;4995464;28;20581;-84
2020/12/31 12:40:06;;;;;;;2.17;1.90;;;;;;;;;;4962187;28;20878;-84
2020/12/31 12:43:10;;;;;;;2.70;2.10;;;;;;;;;;4972633;28;20225;-84
2020/12/31 12:46:19;;;;;;;2.57;2.20;;;;;;;;;;4973325;28;20178;-85
2020/12/31 12:49:23;;;;;;;2.43;1.90;;;;;;;;;;4964917;28;20665;-84
2020/12/31 12:52:27;;;;;;;2.37;2.03;;;;;;;;;;4963921;28;20645;-83
2020/12/31 12:55:31;;;;;;;3.37;2.57;;;;;;;;;;4987259;28;20534;-84
2020/12/31 12:58:36;;;;;;;3.03;2.17;;;;;;;;;;4960844;28;20589;-83
2020/12/31 13:01:40;;;;;;;2.37;2.10;;;;;;;;;;4960872;28;20604;-84
2020/12/31 13:04:44;;;;;;;2.97;2.37;;;;;;;;;;4983113;28;20625;-84
2020/12/31 13:07:48;;;;;;;4.53;2.47;;;;;;;;;;4995242;28;20877;-84
2020/12/31 13:10:52;;;;;;;2.20;2.00;;;;;;;;;;4995848;28;20549;-84
2020/12/31 13:13:57;;;;;;;2.40;2.00;;;;;;;;;;4982724;28;20657;-84
2020/12/31 13:17:01;;;;;;;3.87;2.40;;;;;;;;;;4954510;28;20547;-84
2020/12/31 13:20:06;;;;;;;4.27;2.30;;;;;;;;;;4964379;28;21072;-85
2020/12/31 13:23:10;;;;;;;2.30;2.10;;;;;;;;;;4970929;28;20641;-86
2020/12/31 13:26:15;;;;;;;3.10;2.80;;;;;;;;;;4983481;28;20625;-83
2020/12/31 13:29:19;;;;;;;3.57;2.60;;;;;;;;;;4995564;28;20644;-83
2020/12/31 13:32:23;;;;;;;3.30;2.60;;;;;;;;;;4983600;28;20222;-84
2020/12/31 13:35:28;;;;;;;2.70;2.23;;;;;;;;;;4995469;28;20186;-84
2020/12/31 13:38:32;;;;;;;2.30;2.03;;;;;;;;;;4995541;28;20652;-84
2020/12/31 13:41:36;;;;;;;4.77;2.53;;;;;;;;;;4995461;28;20538;-84
2020/12/31 13:44:41;;;;;;;2.77;2.17;;;;;;;;;;4984348;28;20542;-85
2020/12/31 13:47:48;;;;;;;3.07;2.20;;;;;;;;;;4997667;28;20182;-84
2020/12/31 13:50:52;;;;;;;3.87;2.47;;;;;;;;;;4975356;28;20190;-83
2020/12/31 13:53:56;;;;;;;3.20;2.37;;;;;;;;;;4987109;28;20225;-85
2020/12/31 13:56:33;;;;;;;2.97;2.53;;;;;;;;;;5091181;27;20783;-74
2020/12/31 13:59:37;;;;;;;2.60;2.30;;;;;;;;;;5090957;28;20618;-74
2020/12/31 14:02:41;;;;;;;3.20;2.33;;;;;;;;;;5070566;28;20199;-74
2020/12/31 14:05:45;;;;;;;2.53;2.33;;;;;;;;;;5070603;28;20546;-74
2020/12/31 14:08:50;;;;;;;2.93;2.33;;;;;;;;;;5070448;28;20550;-74
2020/12/31 14:11:54;;;;;;;2.67;2.40;;;;;;;;;;5070122;28;20617;-74
2020/12/31 14:14:58;;;;;;;2.67;2.37;;;;;;;;;;5070361;28;20203;-74
2020/12/31 14:18:02;;;;;;;5.03;2.63;;;;;;;;;;5070672;28;20885;-74
2020/12/31 14:21:07;;;;;;;2.93;2.30;;;;;;;;;;5070269;28;20617;-74
2020/12/31 14:24:11;;;;;;;2.90;2.53;;;;;;;;;;5069909;28;20546;-74
2020/12/31 14:27:15;;;;;;;4.43;2.33;;;;;;;;;;5069856;28;20534;-74
2020/12/31 14:30:19;;;;;;;2.57;2.33;;;;;;;;;;5069760;28;20534;-74
2020/12/31 14:33:23;;;;;;;4.13;2.63;;;;;;;;;;5070074;28;20546;-74
2020/12/31 14:36:27;;;;;;;3.03;2.40;;;;;;;;;;5069772;28;21142;-75
2020/12/31 14:39:32;;;;;;;3.90;2.53;;;;;;;;;;5069702;28;20558;-74
2020/12/31 14:42:36;;;;;;;3.03;2.33;;;;;;;;;;5057367;28;20988;-74
2020/12/31 14:45:47;;;;;;;4.03;2.90;;;;;;;;;;5069536;28;20538;-75
2020/12/31 14:48:51;;;;;;;6.47;3.00;;;;;;;;;;5057226;28;20555;-74
2020/12/31 14:51:55;;;;;;;3.17;2.67;;;;;;;;;;5045762;28;20617;-74
2020/12/31 14:54:59;;;;;;;2.80;2.47;;;;;;;;;;5056962;28;20644;-75
2020/12/31 14:58:03;;;;;;;4.03;2.80;;;;;;;;;;5069565;28;21084;-74
2020/12/31 15:01:08;;;;;;;3.93;2.90;;;;;;;;;;5069094;28;20629;-74
2020/12/31 15:04:12;;;;;;;3.43;2.50;;;;;;;;;;5057290;28;20964;-75
2020/12/31 15:07:16;;;;;;;2.67;2.20;;;;;;;;;;5060045;28;20897;-74
2020/12/31 15:10:20;;;;;;;4.10;3.00;;;;;;;;;;5043647;28;20534;-74
2020/12/31 15:13:24;;;;;;;3.63;2.53;;;;;;;;;;5056270;28;20539;-74
2020/12/31 15:16:29;;;;;;;3.30;2.70;;;;;;;;;;5054767;28;20622;-74
2020/12/31 15:19:33;;;;;;;3.93;2.90;;;;;;;;;;5055539;28;20582;-74
2020/12/31 15:22:37;;;;;;;3.50;2.87;;;;;;;;;;5053167;28;20630;-75
2020/12/31 15:25:41;;;;;;;5.23;3.10;;;;;;;;;;5055245;28;20621;-74
2020/12/31 15:28:45;;;;;;;3.73;2.73;;;;;;;;;;5055958;28;20543;-74
2020/12/31 15:31:52;;;;;;;3.90;2.87;;;;;;;;;;5056672;28;20642;-74
2020/12/31 15:34:56;;;;;;;4.03;2.97;;;;;;;;;;5072607;28;20578;-74
2020/12/31 15:38:00;;;;;;;3.03;2.73;;;;;;;;;;5042741;28;20567;-74
2020/12/31 15:41:05;;;;;;;3.27;2.97;;;;;;;;;;5041948;28;20642;-74
2020/12/31 15:44:09;;;;;;;4.23;3.03;;;;;;;;;;5042564;28;20587;-74
2020/12/31 15:47:13;;;;;;;5.07;3.17;;;;;;;;;;5043531;28;21151;-74
2020/12/31 15:50:18;;;;;;;4.60;3.47;;;;;;;;;;5054918;28;20594;-74
2020/12/31 15:53:22;;;;;;;5.40;3.10;;;;;;;;;;5055327;28;20586;-74
2020/12/31 15:56:27;;;;;;;3.97;3.33;;;;;;;;;;5062511;28;20648;-74
2020/12/31 15:59:30;;;;;;;4.10;3.27;;;;;;;;;;5056953;28;20582;-74
2020/12/31 16:02:42;;;;;;;4.00;3.17;;;;;;;;;;5042684;28;20614;-74
2020/12/31 16:05:47;;;;;;;5.63;3.70;;;;;;;;;;5055120;28;20543;-74
2020/12/31 16:08:51;;;;;;;6.40;3.60;;;;;;;;;;5055332;28;21192;-75
2020/12/31 16:11:56;;;;;;;4.73;3.40;;;;;;;;;;5055008;28;20638;-75
2020/12/31 16:15:01;;;;;;;4.40;3.20;;;;;;;;;;5062357;28;20916;-75
2020/12/31 16:18:05;;;;;;;5.73;3.37;;;;;;;;;;5072105;28;20578;-74
2020/12/31 16:21:10;;;;;;;4.97;3.33;;;;;;;;;;5067918;28;20642;-75
2020/12/31 16:24:15;;;;;;;6.13;3.80;;;;;;;;;;5041677;28;20595;-75
2020/12/31 16:27:24;;;;;;;4.90;3.70;;;;;;;;;;5042423;28;20535;-74
2020/12/31 16:30:28;;;;;;;5.90;4.03;;;;;;;;;;5053953;28;20590;-75
2020/12/31 16:33:32;;;;;;;4.87;3.80;;;;;;;;;;5054119;28;20618;-75
2020/12/31 16:36:36;;;;;;;5.53;3.87;;;;;;;;;;5053809;28;20626;-74
2020/12/31 16:39:42;;;;;;;6.70;3.70;;;;;;;;;;5054054;28;20616;-74
2020/12/31 16:42:46;;;;;;;6.53;4.60;;;;;;;;;;5042441;28;20590;-75
2020/12/31 16:45:50;;;;;;;5.70;4.00;;;;;;;;;;5033398;28;20619;-75
2020/12/31 16:48:54;;;;;;;5.13;3.93;;;;;;;;;;5042132;28;20582;-75
2020/12/31 16:52:02;;;;;;;5.13;4.30;;;;;;;;;;5040435;28;20646;-74
2020/12/31 16:55:07;;;;;;;6.90;4.47;;;;;;;;;;5048134;23;20698;-72
2020/12/31 16:58:10;;;;;;;6.73;4.43;;;;;;;;;;5021632;28;20548;-73
2020/12/31 17:01:23;;;;;;;6.73;4.60;;;;;;;;;;5033127;28;20650;-73
2020/12/31 17:04:28;;;;;;;6.23;4.43;;;;;;;;;;5041311;28;21101;-73
2020/12/31 17:07:31;;;;;;;6.13;4.37;;;;;;;;;;5026129;28;20606;-73
2020/12/31 17:10:40;;;;;;;6.63;4.93;;;;;;;;;;5040773;28;20622;-73
2020/12/31 17:13:45;;;;;;;6.53;4.70;;;;;;;;;;5035590;28;20595;-73
2020/12/31 17:16:50;;;;;;;6.70;4.90;;;;;;;;;;5033330;28;21196;-73
2020/12/31 17:19:54;;;;;;;6.93;4.37;;;;;;;;;;5033205;28;20615;-73
2020/12/31 17:22:58;;;;;;;6.77;4.73;;;;;;;;;;5033734;28;20592;-73
2020/12/31 17:26:02;;;;;;;8.27;5.03;;;;;;;;;;5021082;28;20583;-72
2020/12/31 17:29:12;;;;;;;5.83;5.00;;;;;;;;;;5033156;28;20599;-73
2020/12/31 17:32:16;;;;;;;6.53;4.50;;;;;;;;;;5033215;28;20619;-73
2020/12/31 17:35:21;;;;;;;7.97;4.50;;;;;;;;;;5033255;28;20591;-73
2020/12/31 17:38:25;;;;;;;7.20;4.97;;;;;;;;;;5041304;28;20594;-73
2020/12/31 17:41:29;;;;;;;6.63;4.80;;;;;;;;;;5053360;28;20622;-73
2020/12/31 17:44:33;;;;;;;9.40;5.00;;;;;;;;;;5041040;28;20546;-73
2020/12/31 17:47:37;;;;;;;6.70;5.03;;;;;;;;;;5031953;28;20572;-73
2020/12/31 17:50:42;;;;;;;7.07;4.67;;;;;;;;;;5018611;28;20643;-73
2020/12/31 17:53:47;;;;;;;5.93;4.57;;;;;;;;;;5032867;28;20602;-73
2020/12/31 17:56:52;;;;;;;6.13;4.97;;;;;;;;;;5033247;28;20584;-73
2020/12/31 17:59:56;;;;;;;8.83;5.70;;;;;;;;;;5033149;28;21070;-73
2020/12/31 18:03:01;;;;;;;7.47;5.23;;;;;;;;;;5037381;28;20590;-73
2020/12/31 18:06:07;;;;;;;5.83;4.80;;;;;;;;;;5037782;28;20580;-73
2020/12/31 18:09:10;;;;;;;7.50;4.67;;;;;;;;;;5045338;28;20594;-73
2020/12/31 18:12:16;;;;;;;7.00;5.10;;;;;;;;;;5040209;28;20638;-74
2020/12/31 18:15:20;;;;;;;8.83;5.30;;;;;;;;;;5040646;28;21085;-73
2020/12/31 18:18:25;;;;;;;10.33;4.57;;;;;;;;;;5050904;28;20950;-73
2020/12/31 18:21:29;;;;;;;5.10;4.37;;;;;;;;;;5052618;28;20633;-73
2020/12/31 18:24:33;;;;;;;5.47;4.50;;;;;;;;;;5052779;28;21049;-73
2020/12/31 18:27:37;;;;;;;5.30;4.30;;;;;;;;;;5052570;28;20586;-73